sensor_id;sensor_type;location;lat;lon;timestamp;P1;durP1;ratioP1;P2;durP2;ratioP2
22679;SDS011;11507;44.858;10.374;2023-02-28T00:01:27;14.77;;;8.35;;
22679;SDS011;11507;44.858;10.374;2023-02-28T00:03:54;12.75;;;7.63;;
22679;SDS011;11507;44.858;10.374;2023-02-28T00:06:21;17.10;;;7.78;;
22679;SDS011;11507;44.858;10.374;2023-02-28T00:08:49;16.70;;;8.10;;
22679;SDS011;11507;44.858;10.374;2023-02-28T00:11:18;18.58;;;8.20;;
22679;SDS011;11507;44.858;10.374;2023-02-28T00:13:48;14.18;;;8.10;;
22679;SDS011;11507;44.858;10.374;2023-02-28T00:16:19;15.10;;;7.97;;
22679;SDS011;11507;44.858;10.374;2023-02-28T00:18:48;22.67;;;8.70;;
22679;SDS011;11507;44.858;10.374;2023-02-28T00:21:16;15.68;;;8.40;;
22679;SDS011;11507;44.858;10.374;2023-02-28T00:23:44;18.77;;;8.88;;
22679;SDS011;11507;44.858;10.374;2023-02-28T00:26:11;19.35;;;8.85;;
22679;SDS011;11507;44.858;10.374;2023-02-28T00:28:44;15.70;;;8.43;;
22679;SDS011;11507;44.858;10.374;2023-02-28T00:31:15;15.38;;;8.10;;
22679;SDS011;11507;44.858;10.374;2023-02-28T00:33:41;16.25;;;8.10;;
22679;SDS011;11507;44.858;10.374;2023-02-28T00:36:10;15.88;;;8.85;;
22679;SDS011;11507;44.858;10.374;2023-02-28T00:38:40;15.45;;;8.32;;
22679;SDS011;11507;44.858;10.374;2023-02-28T00:41:11;16.30;;;8.27;;
22679;SDS011;11507;44.858;10.374;2023-02-28T00:43:39;16.83;;;9.18;;
22679;SDS011;11507;44.858;10.374;2023-02-28T00:46:07;17.92;;;8.63;;
22679;SDS011;11507;44.858;10.374;2023-02-28T00:48:37;13.80;;;7.93;;
22679;SDS011;11507;44.858;10.374;2023-02-28T00:51:06;18.50;;;8.95;;
22679;SDS011;11507;44.858;10.374;2023-02-28T00:53:34;17.13;;;8.80;;
22679;SDS011;11507;44.858;10.374;2023-02-28T00:56:00;16.95;;;7.93;;
22679;SDS011;11507;44.858;10.374;2023-02-28T00:58:30;15.35;;;8.50;;
22679;SDS011;11507;44.858;10.374;2023-02-28T01:00:57;15.70;;;8.23;;
22679;SDS011;11507;44.858;10.374;2023-02-28T01:03:23;14.70;;;8.30;;
22679;SDS011;11507;44.858;10.374;2023-02-28T01:08:18;15.70;;;8.82;;
22679;SDS011;11507;44.858;10.374;2023-02-28T01:10:45;14.48;;;8.35;;
22679;SDS011;11507;44.858;10.374;2023-02-28T01:13:12;12.77;;;8.00;;
22679;SDS011;11507;44.858;10.374;2023-02-28T01:15:43;14.48;;;8.27;;
22679;SDS011;11507;44.858;10.374;2023-02-28T01:18:23;16.02;;;7.97;;
22679;SDS011;11507;44.858;10.374;2023-02-28T01:20:53;18.70;;;8.82;;
22679;SDS011;11507;44.858;10.374;2023-02-28T01:23:25;16.92;;;8.77;;
22679;SDS011;11507;44.858;10.374;2023-02-28T01:25:52;17.42;;;8.30;;
22679;SDS011;11507;44.858;10.374;2023-02-28T01:28:23;17.67;;;8.32;;
22679;SDS011;11507;44.858;10.374;2023-02-28T01:30:49;19.08;;;8.70;;
22679;SDS011;11507;44.858;10.374;2023-02-28T01:33:16;16.25;;;8.18;;
22679;SDS011;11507;44.858;10.374;2023-02-28T01:35:45;17.42;;;8.50;;
22679;SDS011;11507;44.858;10.374;2023-02-28T01:38:14;17.17;;;8.90;;
22679;SDS011;11507;44.858;10.374;2023-02-28T01:40:42;18.35;;;9.25;;
22679;SDS011;11507;44.858;10.374;2023-02-28T01:43:52;14.68;;;8.18;;
22679;SDS011;11507;44.858;10.374;2023-02-28T01:46:21;21.10;;;9.00;;
22679;SDS011;11507;44.858;10.374;2023-02-28T01:48:53;16.52;;;8.55;;
22679;SDS011;11507;44.858;10.374;2023-02-28T01:54:21;17.45;;;8.35;;
22679;SDS011;11507;44.858;10.374;2023-02-28T01:56:54;17.30;;;7.85;;
22679;SDS011;11507;44.858;10.374;2023-02-28T01:59:28;14.45;;;8.05;;
22679;SDS011;11507;44.858;10.374;2023-02-28T02:02:03;15.52;;;8.52;;
22679;SDS011;11507;44.858;10.374;2023-02-28T02:04:37;13.68;;;7.75;;
22679;SDS011;11507;44.858;10.374;2023-02-28T02:07:12;13.13;;;7.72;;
22679;SDS011;11507;44.858;10.374;2023-02-28T02:09:43;16.52;;;8.00;;
22679;SDS011;11507;44.858;10.374;2023-02-28T02:14:59;17.30;;;8.63;;
22679;SDS011;11507;44.858;10.374;2023-02-28T02:17:44;14.13;;;8.40;;
22679;SDS011;11507;44.858;10.374;2023-02-28T02:23:07;18.23;;;8.40;;
22679;SDS011;11507;44.858;10.374;2023-02-28T02:36:49;13.48;;;7.95;;
22679;SDS011;11507;44.858;10.374;2023-02-28T02:41:58;13.38;;;7.95;;
22679;SDS011;11507;44.858;10.374;2023-02-28T02:44:31;15.15;;;8.70;;
22679;SDS011;11507;44.858;10.374;2023-02-28T02:47:10;15.45;;;8.50;;
22679;SDS011;11507;44.858;10.374;2023-02-28T02:49:39;14.10;;;8.25;;
22679;SDS011;11507;44.858;10.374;2023-02-28T02:52:09;13.80;;;7.93;;
22679;SDS011;11507;44.858;10.374;2023-02-28T02:54:41;14.70;;;7.70;;
22679;SDS011;11507;44.858;10.374;2023-02-28T02:57:33;13.02;;;7.57;;
22679;SDS011;11507;44.858;10.374;2023-02-28T03:00:22;13.75;;;7.88;;
22679;SDS011;11507;44.858;10.374;2023-02-28T03:02:54;11.73;;;7.28;;
22679;SDS011;11507;44.858;10.374;2023-02-28T03:05:33;14.30;;;7.85;;
22679;SDS011;11507;44.858;10.374;2023-02-28T03:08:15;12.85;;;7.78;;
22679;SDS011;11507;44.858;10.374;2023-02-28T03:10:46;12.05;;;7.05;;
22679;SDS011;11507;44.858;10.374;2023-02-28T03:24:39;13.48;;;7.40;;
22679;SDS011;11507;44.858;10.374;2023-02-28T03:27:24;13.35;;;7.18;;
22679;SDS011;11507;44.858;10.374;2023-02-28T03:32:58;12.73;;;7.00;;
22679;SDS011;11507;44.858;10.374;2023-02-28T03:35:37;14.20;;;7.22;;
22679;SDS011;11507;44.858;10.374;2023-02-28T03:38:20;12.13;;;7.32;;
22679;SDS011;11507;44.858;10.374;2023-02-28T03:41:09;13.75;;;7.53;;
22679;SDS011;11507;44.858;10.374;2023-02-28T03:43:48;11.68;;;7.05;;
22679;SDS011;11507;44.858;10.374;2023-02-28T03:46:23;11.90;;;7.32;;
22679;SDS011;11507;44.858;10.374;2023-02-28T03:51:43;13.27;;;7.55;;
22679;SDS011;11507;44.858;10.374;2023-02-28T03:54:19;14.38;;;7.43;;
22679;SDS011;11507;44.858;10.374;2023-02-28T03:57:11;10.95;;;6.95;;
22679;SDS011;11507;44.858;10.374;2023-02-28T04:02:58;12.27;;;6.93;;
22679;SDS011;11507;44.858;10.374;2023-02-28T04:05:25;12.27;;;7.32;;
22679;SDS011;11507;44.858;10.374;2023-02-28T04:08:07;15.25;;;8.18;;
22679;SDS011;11507;44.858;10.374;2023-02-28T04:10:38;12.20;;;8.18;;
22679;SDS011;11507;44.858;10.374;2023-02-28T04:13:09;12.63;;;7.90;;
22679;SDS011;11507;44.858;10.374;2023-02-28T04:15:38;18.40;;;7.65;;
22679;SDS011;11507;44.858;10.374;2023-02-28T04:18:05;14.40;;;8.52;;
22679;SDS011;11507;44.858;10.374;2023-02-28T04:20:35;14.52;;;8.43;;
22679;SDS011;11507;44.858;10.374;2023-02-28T04:23:04;13.57;;;8.32;;
22679;SDS011;11507;44.858;10.374;2023-02-28T04:25:30;15.88;;;8.68;;
22679;SDS011;11507;44.858;10.374;2023-02-28T04:30:27;15.27;;;8.65;;
22679;SDS011;11507;44.858;10.374;2023-02-28T04:32:59;13.00;;;7.82;;
22679;SDS011;11507;44.858;10.374;2023-02-28T04:35:25;14.52;;;8.90;;
22679;SDS011;11507;44.858;10.374;2023-02-28T04:40:25;14.43;;;7.93;;
22679;SDS011;11507;44.858;10.374;2023-02-28T04:42:58;14.15;;;8.13;;
22679;SDS011;11507;44.858;10.374;2023-02-28T04:45:25;14.18;;;7.78;;
22679;SDS011;11507;44.858;10.374;2023-02-28T04:47:58;14.18;;;7.85;;
22679;SDS011;11507;44.858;10.374;2023-02-28T04:52:50;13.10;;;8.25;;
22679;SDS011;11507;44.858;10.374;2023-02-28T04:55:17;12.45;;;7.78;;
22679;SDS011;11507;44.858;10.374;2023-02-28T04:57:43;13.50;;;8.20;;
22679;SDS011;11507;44.858;10.374;2023-02-28T05:00:11;15.32;;;8.38;;
22679;SDS011;11507;44.858;10.374;2023-02-28T05:02:41;13.75;;;7.93;;
22679;SDS011;11507;44.858;10.374;2023-02-28T05:05:09;13.93;;;8.50;;
22679;SDS011;11507;44.858;10.374;2023-02-28T05:07:35;12.95;;;8.10;;
22679;SDS011;11507;44.858;10.374;2023-02-28T05:10:03;13.18;;;7.63;;
22679;SDS011;11507;44.858;10.374;2023-02-28T05:12:29;12.40;;;7.75;;
22679;SDS011;11507;44.858;10.374;2023-02-28T05:14:58;18.15;;;8.95;;
22679;SDS011;11507;44.858;10.374;2023-02-28T05:17:26;14.00;;;8.20;;
22679;SDS011;11507;44.858;10.374;2023-02-28T05:19:53;15.00;;;8.38;;
22679;SDS011;11507;44.858;10.374;2023-02-28T05:22:19;13.98;;;8.18;;
22679;SDS011;11507;44.858;10.374;2023-02-28T05:24:47;14.45;;;8.25;;
22679;SDS011;11507;44.858;10.374;2023-02-28T05:27:14;16.20;;;8.93;;
22679;SDS011;11507;44.858;10.374;2023-02-28T05:29:41;13.43;;;8.35;;
22679;SDS011;11507;44.858;10.374;2023-02-28T05:32:11;14.20;;;8.40;;
22679;SDS011;11507;44.858;10.374;2023-02-28T05:34:39;14.07;;;8.48;;
22679;SDS011;11507;44.858;10.374;2023-02-28T05:37:11;14.07;;;8.57;;
22679;SDS011;11507;44.858;10.374;2023-02-28T05:39:40;19.65;;;8.43;;
22679;SDS011;11507;44.858;10.374;2023-02-28T05:42:09;13.98;;;8.60;;
22679;SDS011;11507;44.858;10.374;2023-02-28T05:44:37;16.88;;;8.25;;
22679;SDS011;11507;44.858;10.374;2023-02-28T05:47:08;15.77;;;8.43;;
22679;SDS011;11507;44.858;10.374;2023-02-28T05:49:36;15.05;;;8.85;;
22679;SDS011;11507;44.858;10.374;2023-02-28T05:52:03;14.55;;;8.98;;
22679;SDS011;11507;44.858;10.374;2023-02-28T05:54:30;15.27;;;9.02;;
22679;SDS011;11507;44.858;10.374;2023-02-28T05:56:57;12.82;;;8.02;;
22679;SDS011;11507;44.858;10.374;2023-02-28T05:59:26;15.43;;;9.18;;
22679;SDS011;11507;44.858;10.374;2023-02-28T06:01:54;15.10;;;8.77;;
22679;SDS011;11507;44.858;10.374;2023-02-28T06:04:23;17.45;;;9.13;;
22679;SDS011;11507;44.858;10.374;2023-02-28T06:06:53;14.13;;;8.90;;
22679;SDS011;11507;44.858;10.374;2023-02-28T06:09:22;14.45;;;8.57;;
22679;SDS011;11507;44.858;10.374;2023-02-28T06:14:15;15.18;;;8.98;;
22679;SDS011;11507;44.858;10.374;2023-02-28T06:16:44;14.27;;;8.30;;
22679;SDS011;11507;44.858;10.374;2023-02-28T06:21:37;15.75;;;8.38;;
22679;SDS011;11507;44.858;10.374;2023-02-28T06:24:03;14.70;;;8.63;;
22679;SDS011;11507;44.858;10.374;2023-02-28T06:26:31;15.73;;;8.52;;
22679;SDS011;11507;44.858;10.374;2023-02-28T06:28:57;14.02;;;8.38;;
22679;SDS011;11507;44.858;10.374;2023-02-28T06:31:23;14.45;;;9.13;;
22679;SDS011;11507;44.858;10.374;2023-02-28T06:33:51;15.95;;;9.50;;
22679;SDS011;11507;44.858;10.374;2023-02-28T06:36:17;13.95;;;8.68;;
22679;SDS011;11507;44.858;10.374;2023-02-28T06:41:09;16.95;;;9.35;;
22679;SDS011;11507;44.858;10.374;2023-02-28T06:43:37;12.98;;;8.50;;
22679;SDS011;11507;44.858;10.374;2023-02-28T06:46:07;15.38;;;8.48;;
22679;SDS011;11507;44.858;10.374;2023-02-28T06:48:36;14.63;;;8.80;;
22679;SDS011;11507;44.858;10.374;2023-02-28T06:53:28;15.07;;;9.32;;
22679;SDS011;11507;44.858;10.374;2023-02-28T06:55:54;15.02;;;9.20;;
22679;SDS011;11507;44.858;10.374;2023-02-28T07:00:49;14.73;;;9.18;;
22679;SDS011;11507;44.858;10.374;2023-02-28T07:03:17;15.07;;;9.38;;
22679;SDS011;11507;44.858;10.374;2023-02-28T07:08:09;16.63;;;9.63;;
22679;SDS011;11507;44.858;10.374;2023-02-28T07:13:04;17.73;;;9.32;;
22679;SDS011;11507;44.858;10.374;2023-02-28T07:15:31;17.35;;;10.00;;
22679;SDS011;11507;44.858;10.374;2023-02-28T07:17:57;17.48;;;10.23;;
22679;SDS011;11507;44.858;10.374;2023-02-28T07:22:51;16.25;;;9.70;;
22679;SDS011;11507;44.858;10.374;2023-02-28T07:25:22;19.20;;;9.90;;
22679;SDS011;11507;44.858;10.374;2023-02-28T07:27:49;18.23;;;9.95;;
22679;SDS011;11507;44.858;10.374;2023-02-28T07:30:15;19.90;;;10.27;;
22679;SDS011;11507;44.858;10.374;2023-02-28T07:32:41;20.30;;;10.40;;
22679;SDS011;11507;44.858;10.374;2023-02-28T07:37:33;16.52;;;9.48;;
22679;SDS011;11507;44.858;10.374;2023-02-28T07:40:05;19.00;;;9.85;;
22679;SDS011;11507;44.858;10.374;2023-02-28T07:42:34;18.25;;;10.35;;
22679;SDS011;11507;44.858;10.374;2023-02-28T07:45:02;18.45;;;10.10;;
22679;SDS011;11507;44.858;10.374;2023-02-28T07:47:29;18.20;;;10.10;;
22679;SDS011;11507;44.858;10.374;2023-02-28T07:52:21;23.15;;;10.55;;
22679;SDS011;11507;44.858;10.374;2023-02-28T07:54:49;18.38;;;10.80;;
22679;SDS011;11507;44.858;10.374;2023-02-28T07:57:15;16.73;;;9.75;;
22679;SDS011;11507;44.858;10.374;2023-02-28T07:59:41;15.82;;;10.15;;
22679;SDS011;11507;44.858;10.374;2023-02-28T08:02:14;15.43;;;9.40;;
22679;SDS011;11507;44.858;10.374;2023-02-28T08:04:41;18.80;;;10.15;;
22679;SDS011;11507;44.858;10.374;2023-02-28T08:07:08;18.08;;;10.30;;
22679;SDS011;11507;44.858;10.374;2023-02-28T08:09:41;18.15;;;9.13;;
22679;SDS011;11507;44.858;10.374;2023-02-28T08:12:10;17.52;;;10.27;;
22679;SDS011;11507;44.858;10.374;2023-02-28T08:14:36;18.58;;;10.27;;
22679;SDS011;11507;44.858;10.374;2023-02-28T08:17:02;16.98;;;10.00;;
22679;SDS011;11507;44.858;10.374;2023-02-28T08:19:31;16.73;;;9.65;;
22679;SDS011;11507;44.858;10.374;2023-02-28T08:21:57;17.58;;;9.98;;
22679;SDS011;11507;44.858;10.374;2023-02-28T08:24:23;16.10;;;10.70;;
22679;SDS011;11507;44.858;10.374;2023-02-28T08:29:15;15.50;;;8.90;;
22679;SDS011;11507;44.858;10.374;2023-02-28T08:31:41;17.42;;;9.65;;
22679;SDS011;11507;44.858;10.374;2023-02-28T08:34:11;16.33;;;9.52;;
22679;SDS011;11507;44.858;10.374;2023-02-28T08:36:39;14.40;;;9.38;;
22679;SDS011;11507;44.858;10.374;2023-02-28T08:39:05;16.30;;;9.80;;
22679;SDS011;11507;44.858;10.374;2023-02-28T08:41:32;14.30;;;9.15;;
22679;SDS011;11507;44.858;10.374;2023-02-28T08:43:58;19.10;;;9.80;;
22679;SDS011;11507;44.858;10.374;2023-02-28T08:46:25;15.48;;;10.27;;
22679;SDS011;11507;44.858;10.374;2023-02-28T08:48:54;13.50;;;8.70;;
22679;SDS011;11507;44.858;10.374;2023-02-28T08:51:24;13.32;;;8.68;;
22679;SDS011;11507;44.858;10.374;2023-02-28T08:53:53;14.85;;;9.15;;
22679;SDS011;11507;44.858;10.374;2023-02-28T08:56:20;13.95;;;8.95;;
22679;SDS011;11507;44.858;10.374;2023-02-28T08:58:48;17.42;;;8.80;;
22679;SDS011;11507;44.858;10.374;2023-02-28T09:01:16;13.80;;;8.65;;
22679;SDS011;11507;44.858;10.374;2023-02-28T09:03:46;15.85;;;8.90;;
22679;SDS011;11507;44.858;10.374;2023-02-28T09:06:13;14.55;;;8.77;;
22679;SDS011;11507;44.858;10.374;2023-02-28T09:08:40;14.15;;;9.07;;
22679;SDS011;11507;44.858;10.374;2023-02-28T09:13:32;13.48;;;8.63;;
22679;SDS011;11507;44.858;10.374;2023-02-28T09:15:59;14.07;;;9.00;;
22679;SDS011;11507;44.858;10.374;2023-02-28T09:18:26;14.73;;;9.40;;
22679;SDS011;11507;44.858;10.374;2023-02-28T09:20:52;14.13;;;9.35;;
22679;SDS011;11507;44.858;10.374;2023-02-28T09:23:19;13.38;;;9.15;;
22679;SDS011;11507;44.858;10.374;2023-02-28T09:25:47;15.93;;;9.38;;
22679;SDS011;11507;44.858;10.374;2023-02-28T09:28:14;15.68;;;9.38;;
22679;SDS011;11507;44.858;10.374;2023-02-28T09:30:42;14.02;;;8.77;;
22679;SDS011;11507;44.858;10.374;2023-02-28T09:33:13;12.93;;;8.98;;
22679;SDS011;11507;44.858;10.374;2023-02-28T09:35:40;12.50;;;8.88;;
22679;SDS011;11507;44.858;10.374;2023-02-28T09:38:08;15.35;;;9.57;;
22679;SDS011;11507;44.858;10.374;2023-02-28T09:40:36;13.52;;;8.90;;
22679;SDS011;11507;44.858;10.374;2023-02-28T09:43:15;13.80;;;8.30;;
22679;SDS011;11507;44.858;10.374;2023-02-28T09:45:44;12.90;;;8.50;;
22679;SDS011;11507;44.858;10.374;2023-02-28T09:48:20;14.63;;;8.32;;
22679;SDS011;11507;44.858;10.374;2023-02-28T09:50:51;13.57;;;8.77;;
22679;SDS011;11507;44.858;10.374;2023-02-28T09:53:34;14.23;;;8.80;;
22679;SDS011;11507;44.858;10.374;2023-02-28T09:56:08;14.27;;;8.85;;
22679;SDS011;11507;44.858;10.374;2023-02-28T10:01:34;13.80;;;8.75;;
22679;SDS011;11507;44.858;10.374;2023-02-28T10:12:53;13.60;;;8.98;;
22679;SDS011;11507;44.858;10.374;2023-02-28T10:15:23;12.50;;;8.77;;
22679;SDS011;11507;44.858;10.374;2023-02-28T10:17:54;13.07;;;8.93;;
22679;SDS011;11507;44.858;10.374;2023-02-28T10:20:23;12.48;;;8.60;;
22679;SDS011;11507;44.858;10.374;2023-02-28T10:23:10;12.68;;;8.20;;
22679;SDS011;11507;44.858;10.374;2023-02-28T10:28:16;12.48;;;8.50;;
22679;SDS011;11507;44.858;10.374;2023-02-28T10:30:50;13.98;;;9.38;;
22679;SDS011;11507;44.858;10.374;2023-02-28T10:33:31;13.68;;;8.80;;
22679;SDS011;11507;44.858;10.374;2023-02-28T10:36:02;13.18;;;8.23;;
22679;SDS011;11507;44.858;10.374;2023-02-28T10:38:33;12.48;;;8.55;;
22679;SDS011;11507;44.858;10.374;2023-02-28T10:41:27;11.57;;;8.50;;
22679;SDS011;11507;44.858;10.374;2023-02-28T10:44:15;13.07;;;7.60;;
22679;SDS011;11507;44.858;10.374;2023-02-28T10:46:45;12.48;;;8.32;;
22679;SDS011;11507;44.858;10.374;2023-02-28T10:51:45;15.00;;;8.85;;
22679;SDS011;11507;44.858;10.374;2023-02-28T10:54:17;13.20;;;8.40;;
22679;SDS011;11507;44.858;10.374;2023-02-28T10:56:54;13.93;;;8.98;;
22679;SDS011;11507;44.858;10.374;2023-02-28T10:59:34;14.32;;;9.13;;
22679;SDS011;11507;44.858;10.374;2023-02-28T11:02:00;14.77;;;9.07;;
22679;SDS011;11507;44.858;10.374;2023-02-28T11:09:39;12.75;;;8.52;;
22679;SDS011;11507;44.858;10.374;2023-02-28T11:12:08;12.23;;;8.77;;
22679;SDS011;11507;44.858;10.374;2023-02-28T11:14:53;12.23;;;8.60;;
22679;SDS011;11507;44.858;10.374;2023-02-28T11:17:28;14.25;;;8.93;;
22679;SDS011;11507;44.858;10.374;2023-02-28T11:19:58;15.40;;;9.45;;
22679;SDS011;11507;44.858;10.374;2023-02-28T11:22:29;12.07;;;8.90;;
22679;SDS011;11507;44.858;10.374;2023-02-28T11:25:02;15.35;;;9.32;;
22679;SDS011;11507;44.858;10.374;2023-02-28T11:27:48;13.40;;;8.45;;
22679;SDS011;11507;44.858;10.374;2023-02-28T11:30:29;14.75;;;9.05;;
22679;SDS011;11507;44.858;10.374;2023-02-28T11:33:00;13.75;;;9.05;;
22679;SDS011;11507;44.858;10.374;2023-02-28T11:35:43;13.15;;;9.13;;
22679;SDS011;11507;44.858;10.374;2023-02-28T11:49:42;16.58;;;9.50;;
22679;SDS011;11507;44.858;10.374;2023-02-28T11:54:53;13.52;;;8.95;;
22679;SDS011;11507;44.858;10.374;2023-02-28T12:00:40;13.95;;;9.23;;
22679;SDS011;11507;44.858;10.374;2023-02-28T12:11:55;13.55;;;9.77;;
22679;SDS011;11507;44.858;10.374;2023-02-28T12:14:56;13.70;;;9.52;;
22679;SDS011;11507;44.858;10.374;2023-02-28T12:20:22;13.30;;;9.50;;
22679;SDS011;11507;44.858;10.374;2023-02-28T12:28:28;15.65;;;9.75;;
22679;SDS011;11507;44.858;10.374;2023-02-28T12:31:00;16.52;;;10.30;;
22679;SDS011;11507;44.858;10.374;2023-02-28T12:33:48;14.05;;;10.20;;
22679;SDS011;11507;44.858;10.374;2023-02-28T12:36:18;13.77;;;10.05;;
22679;SDS011;11507;44.858;10.374;2023-02-28T12:38:48;15.32;;;10.00;;
22679;SDS011;11507;44.858;10.374;2023-02-28T12:41:34;14.65;;;10.05;;
22679;SDS011;11507;44.858;10.374;2023-02-28T12:44:32;15.10;;;9.82;;
22679;SDS011;11507;44.858;10.374;2023-02-28T12:47:09;12.48;;;9.80;;
22679;SDS011;11507;44.858;10.374;2023-02-28T12:53:06;13.50;;;9.23;;
22679;SDS011;11507;44.858;10.374;2023-02-28T12:58:36;13.15;;;10.13;;
22679;SDS011;11507;44.858;10.374;2023-02-28T13:06:39;14.07;;;10.85;;
22679;SDS011;11507;44.858;10.374;2023-02-28T13:09:24;12.02;;;9.85;;
22679;SDS011;11507;44.858;10.374;2023-02-28T13:11:51;12.70;;;10.50;;
22679;SDS011;11507;44.858;10.374;2023-02-28T13:19:56;14.77;;;10.65;;
22679;SDS011;11507;44.858;10.374;2023-02-28T13:27:48;14.43;;;10.57;;
22679;SDS011;11507;44.858;10.374;2023-02-28T13:49:19;13.68;;;10.52;;
22679;SDS011;11507;44.858;10.374;2023-02-28T14:11:29;15.40;;;10.93;;
22679;SDS011;11507;44.858;10.374;2023-02-28T14:14:00;14.82;;;11.60;;
22679;SDS011;11507;44.858;10.374;2023-02-28T14:16:35;16.17;;;11.30;;
22679;SDS011;11507;44.858;10.374;2023-02-28T14:19:03;16.83;;;11.57;;
22679;SDS011;11507;44.858;10.374;2023-02-28T14:21:36;15.75;;;11.43;;
22679;SDS011;11507;44.858;10.374;2023-02-28T14:26:45;16.90;;;11.48;;
22679;SDS011;11507;44.858;10.374;2023-02-28T14:37:51;16.98;;;11.85;;
22679;SDS011;11507;44.858;10.374;2023-02-28T14:42:58;16.67;;;11.65;;
22679;SDS011;11507;44.858;10.374;2023-02-28T14:45:26;18.02;;;12.27;;
22679;SDS011;11507;44.858;10.374;2023-02-28T14:47:58;21.13;;;12.30;;
22679;SDS011;11507;44.858;10.374;2023-02-28T14:50:35;17.70;;;12.20;;
22679;SDS011;11507;44.858;10.374;2023-02-28T14:53:03;20.75;;;12.20;;
22679;SDS011;11507;44.858;10.374;2023-02-28T14:55:32;18.42;;;12.48;;
22679;SDS011;11507;44.858;10.374;2023-02-28T14:58:01;17.67;;;12.55;;
22679;SDS011;11507;44.858;10.374;2023-02-28T15:00:33;17.65;;;12.50;;
22679;SDS011;11507;44.858;10.374;2023-02-28T15:03:39;18.48;;;12.13;;
22679;SDS011;11507;44.858;10.374;2023-02-28T15:05:59;19.48;;;12.63;;
22679;SDS011;11507;44.858;10.374;2023-02-28T15:08:30;20.63;;;12.95;;
22679;SDS011;11507;44.858;10.374;2023-02-28T15:11:05;21.17;;;13.13;;
22679;SDS011;11507;44.858;10.374;2023-02-28T15:16:26;22.83;;;13.35;;
22679;SDS011;11507;44.858;10.374;2023-02-28T15:19:00;21.52;;;13.15;;
22679;SDS011;11507;44.858;10.374;2023-02-28T15:21:43;19.42;;;12.75;;
22679;SDS011;11507;44.858;10.374;2023-02-28T15:26:55;21.85;;;12.75;;
22679;SDS011;11507;44.858;10.374;2023-02-28T15:29:25;20.20;;;12.82;;
22679;SDS011;11507;44.858;10.374;2023-02-28T15:32:00;22.10;;;13.32;;
22679;SDS011;11507;44.858;10.374;2023-02-28T15:34:35;19.15;;;12.63;;
22679;SDS011;11507;44.858;10.374;2023-02-28T15:37:06;20.17;;;12.80;;
22679;SDS011;11507;44.858;10.374;2023-02-28T15:39:51;23.10;;;13.23;;
22679;SDS011;11507;44.858;10.374;2023-02-28T15:42:20;23.75;;;13.90;;
22679;SDS011;11507;44.858;10.374;2023-02-28T15:44:49;20.80;;;13.57;;
22679;SDS011;11507;44.858;10.374;2023-02-28T15:47:19;20.73;;;13.23;;
22679;SDS011;11507;44.858;10.374;2023-02-28T15:49:54;20.05;;;12.85;;
22679;SDS011;11507;44.858;10.374;2023-02-28T15:52:28;20.15;;;12.38;;
22679;SDS011;11507;44.858;10.374;2023-02-28T15:55:07;23.85;;;13.48;;
22679;SDS011;11507;44.858;10.374;2023-02-28T15:57:39;20.00;;;13.00;;
22679;SDS011;11507;44.858;10.374;2023-02-28T16:00:08;24.08;;;13.93;;
22679;SDS011;11507;44.858;10.374;2023-02-28T16:02:40;23.90;;;14.35;;
22679;SDS011;11507;44.858;10.374;2023-02-28T16:10:00;24.67;;;13.85;;
22679;SDS011;11507;44.858;10.374;2023-02-28T16:12:27;21.60;;;13.75;;
22679;SDS011;11507;44.858;10.374;2023-02-28T16:14:56;22.50;;;13.73;;
22679;SDS011;11507;44.858;10.374;2023-02-28T16:17:24;24.52;;;14.27;;
22679;SDS011;11507;44.858;10.374;2023-02-28T16:19:55;23.95;;;14.75;;
22679;SDS011;11507;44.858;10.374;2023-02-28T16:22:22;22.35;;;13.73;;
22679;SDS011;11507;44.858;10.374;2023-02-28T16:24:48;23.35;;;13.65;;
22679;SDS011;11507;44.858;10.374;2023-02-28T16:27:20;24.60;;;13.75;;
22679;SDS011;11507;44.858;10.374;2023-02-28T16:29:53;27.23;;;13.90;;
22679;SDS011;11507;44.858;10.374;2023-02-28T16:32:19;24.60;;;14.52;;
22679;SDS011;11507;44.858;10.374;2023-02-28T16:37:13;24.73;;;14.65;;
22679;SDS011;11507;44.858;10.374;2023-02-28T16:39:42;25.60;;;15.10;;
22679;SDS011;11507;44.858;10.374;2023-02-28T16:42:16;25.63;;;15.20;;
22679;SDS011;11507;44.858;10.374;2023-02-28T16:44:52;26.50;;;16.52;;
22679;SDS011;11507;44.858;10.374;2023-02-28T16:47:18;24.00;;;14.52;;
22679;SDS011;11507;44.858;10.374;2023-02-28T16:49:46;21.70;;;13.77;;
22679;SDS011;11507;44.858;10.374;2023-02-28T16:52:12;24.15;;;14.13;;
22679;SDS011;11507;44.858;10.374;2023-02-28T16:54:39;23.02;;;14.18;;
22679;SDS011;11507;44.858;10.374;2023-02-28T16:57:06;23.67;;;14.32;;
22679;SDS011;11507;44.858;10.374;2023-02-28T16:59:43;23.67;;;14.20;;
22679;SDS011;11507;44.858;10.374;2023-02-28T17:04:45;24.45;;;14.68;;
22679;SDS011;11507;44.858;10.374;2023-02-28T17:07:14;24.60;;;14.52;;
22679;SDS011;11507;44.858;10.374;2023-02-28T17:09:42;29.42;;;15.38;;
22679;SDS011;11507;44.858;10.374;2023-02-28T17:12:08;25.10;;;14.68;;
22679;SDS011;11507;44.858;10.374;2023-02-28T17:14:36;22.83;;;14.15;;
22679;SDS011;11507;44.858;10.374;2023-02-28T17:17:04;25.67;;;14.70;;
22679;SDS011;11507;44.858;10.374;2023-02-28T17:19:30;26.02;;;15.55;;
22679;SDS011;11507;44.858;10.374;2023-02-28T17:24:22;29.02;;;14.88;;
22679;SDS011;11507;44.858;10.374;2023-02-28T17:26:48;25.77;;;14.35;;
22679;SDS011;11507;44.858;10.374;2023-02-28T17:29:18;27.98;;;14.55;;
22679;SDS011;11507;44.858;10.374;2023-02-28T17:31:51;24.52;;;14.38;;
22679;SDS011;11507;44.858;10.374;2023-02-28T17:34:21;25.30;;;14.45;;
22679;SDS011;11507;44.858;10.374;2023-02-28T17:36:48;28.50;;;14.43;;
22679;SDS011;11507;44.858;10.374;2023-02-28T17:39:16;25.27;;;15.13;;
22679;SDS011;11507;44.858;10.374;2023-02-28T17:41:52;26.60;;;15.35;;
22679;SDS011;11507;44.858;10.374;2023-02-28T17:44:19;26.67;;;15.05;;
22679;SDS011;11507;44.858;10.374;2023-02-28T17:46:47;27.33;;;15.68;;
22679;SDS011;11507;44.858;10.374;2023-02-28T17:49:16;28.38;;;16.63;;
22679;SDS011;11507;44.858;10.374;2023-02-28T17:51:43;29.25;;;16.48;;
22679;SDS011;11507;44.858;10.374;2023-02-28T17:54:09;27.50;;;15.95;;
22679;SDS011;11507;44.858;10.374;2023-02-28T17:59:03;29.02;;;16.10;;
22679;SDS011;11507;44.858;10.374;2023-02-28T18:03:56;30.10;;;17.20;;
22679;SDS011;11507;44.858;10.374;2023-02-28T18:06:24;26.33;;;15.73;;
22679;SDS011;11507;44.858;10.374;2023-02-28T18:08:54;27.55;;;15.57;;
22679;SDS011;11507;44.858;10.374;2023-02-28T18:13:47;27.42;;;14.55;;
22679;SDS011;11507;44.858;10.374;2023-02-28T18:16:19;25.35;;;14.50;;
22679;SDS011;11507;44.858;10.374;2023-02-28T18:18:46;25.95;;;15.20;;
22679;SDS011;11507;44.858;10.374;2023-02-28T18:21:13;28.45;;;15.05;;
22679;SDS011;11507;44.858;10.374;2023-02-28T18:23:39;27.23;;;14.60;;
22679;SDS011;11507;44.858;10.374;2023-02-28T18:26:12;31.08;;;15.85;;
22679;SDS011;11507;44.858;10.374;2023-02-28T18:28:39;25.67;;;15.40;;
22679;SDS011;11507;44.858;10.374;2023-02-28T18:31:07;27.55;;;16.00;;
22679;SDS011;11507;44.858;10.374;2023-02-28T18:33:38;27.65;;;16.48;;
22679;SDS011;11507;44.858;10.374;2023-02-28T18:36:07;29.90;;;17.58;;